Time;durP1;ratioP1;P1;durP2;ratioP2;P2;SDS_P1;SDS_P2;PMS_P1;PMS_P2;Temp;Humidity;BMP_temperature;BMP_pressure;BME280_temperature;BME280_humidity;BME280_pressure;Samples;Min_cycle;Max_cycle;Signal;HPM_P1;HPM_P2
2021/12/03 00:00:37;;;;;;;7.28;4.40;;;1.10;99.90;;;;;;5034067;28;20113;-86
2021/12/03 00:03:04;;;;;;;6.78;4.30;;;1.10;99.90;;;;;;5036320;28;20041;-84
2021/12/03 00:05:30;;;;;;;4.72;3.92;;;1.60;99.90;;;;;;5035017;28;20389;-84
2021/12/03 00:07:56;;;;;;;7.60;4.07;;;1.10;99.90;;;;;;5032373;28;20026;-84
2021/12/03 00:10:26;;;;;;;5.13;3.58;;;1.10;99.90;;;;;;5037762;28;20055;-84
2021/12/03 00:12:54;;;;;;;7.03;3.67;;;1.10;99.90;;;;;;5035878;28;20026;-84
2021/12/03 00:15:21;;;;;;;6.88;4.22;;;1.00;99.90;;;;;;5035849;28;20572;-84
2021/12/03 00:17:46;;;;;;;8.55;3.92;;;1.00;99.90;;;;;;5035777;28;20017;-84
2021/12/03 00:20:14;;;;;;;7.38;4.00;;;0.90;99.90;;;;;;5032237;28;20032;-84
2021/12/03 00:22:44;;;;;;;7.80;3.72;;;1.00;99.90;;;;;;5035559;28;20032;-83
2021/12/03 00:25:10;;;;;;;5.47;3.83;;;0.90;99.90;;;;;;5036765;28;20025;-84
2021/12/03 00:27:37;;;;;;;8.85;4.78;;;0.90;99.90;;;;;;5035589;28;20444;-84
2021/12/03 00:30:05;;;;;;;9.50;6.05;;;0.90;99.90;;;;;;5035242;28;20061;-83
2021/12/03 00:32:31;;;;;;;7.47;5.63;;;0.90;99.90;;;;;;5034930;28;20021;-84
2021/12/03 00:34:57;;;;;;;7.40;4.22;;;0.90;99.90;;;;;;5031297;28;20030;-84
2021/12/03 00:37:23;;;;;;;8.98;4.68;;;0.80;99.90;;;;;;5037301;28;20026;-84
2021/12/03 00:39:49;;;;;;;7.03;4.57;;;0.80;99.90;;;;;;5033657;28;20025;-84
2021/12/03 00:42:17;;;;;;;10.68;4.78;;;0.70;99.90;;;;;;5035551;28;20025;-83
2021/12/03 00:44:45;;;;;;;11.27;5.22;;;0.80;99.90;;;;;;5035318;28;20020;-83
2021/12/03 00:47:11;;;;;;;7.43;4.30;;;0.70;99.90;;;;;;5031765;28;20033;-83
2021/12/03 00:49:39;;;;;;;10.48;5.20;;;0.70;99.90;;;;;;5035283;28;20437;-84
2021/12/03 00:52:05;;;;;;;8.27;5.07;;;0.70;99.90;;;;;;5035827;28;20025;-84
2021/12/03 00:54:31;;;;;;;11.07;6.25;;;0.70;99.90;;;;;;5035051;28;20033;-84
2021/12/03 00:56:57;;;;;;;11.13;6.97;;;0.60;99.90;;;;;;5035016;28;20048;-84
2021/12/03 00:59:22;;;;;;;12.23;6.47;;;0.70;99.90;;;;;;5033023;28;20091;-84
2021/12/03 01:01:48;;;;;;;11.90;6.18;;;0.60;99.90;;;;;;5032578;28;20018;-84
2021/12/03 01:04:14;;;;;;;13.23;7.80;;;0.50;99.90;;;;;;5034659;28;20037;-84
2021/12/03 01:06:39;;;;;;;15.23;6.97;;;0.60;99.90;;;;;;5034753;28;20030;-84
2021/12/03 01:09:05;;;;;;;14.20;7.53;;;0.50;99.90;;;;;;5034684;28;20037;-83
2021/12/03 01:11:31;;;;;;;9.43;5.90;;;0.50;99.90;;;;;;5033967;28;20033;-84
2021/12/03 01:14:00;;;;;;;11.18;5.13;;;0.50;99.90;;;;;;5030864;28;20131;-84
2021/12/03 01:16:26;;;;;;;9.52;4.70;;;0.50;99.90;;;;;;5037198;28;20434;-84
2021/12/03 01:18:52;;;;;;;6.30;4.43;;;0.50;99.90;;;;;;5033107;28;20038;-83
2021/12/03 01:21:18;;;;;;;9.23;4.22;;;0.40;99.90;;;;;;5034770;28;20525;-84
2021/12/03 01:23:46;;;;;;;6.15;4.07;;;0.50;99.90;;;;;;5033951;28;20095;-83
2021/12/03 01:26:13;;;;;;;6.93;3.97;;;0.60;99.90;;;;;;5031591;28;20036;-84
2021/12/03 01:28:39;;;;;;;6.05;3.40;;;0.70;99.90;;;;;;5034478;28;20409;-84
2021/12/03 01:31:05;;;;;;;9.70;3.55;;;0.80;99.90;;;;;;5034822;28;20026;-83
2021/12/03 01:33:31;;;;;;;8.90;3.80;;;0.80;99.90;;;;;;5034273;28;20393;-84
2021/12/03 01:35:57;;;;;;;8.27;4.00;;;0.90;99.90;;;;;;5034813;28;20029;-84
2021/12/03 01:38:22;;;;;;;6.47;3.25;;;0.90;99.90;;;;;;5031966;28;20025;-84
2021/12/03 01:40:48;;;;;;;8.38;3.50;;;0.90;99.90;;;;;;5032323;28;20496;-84
2021/12/03 01:43:25;;;;;;;7.68;3.33;;;0.90;99.90;;;;;;5034325;28;20045;-84
2021/12/03 01:46:01;;;;;;;5.40;3.38;;;0.80;99.90;;;;;;5034370;28;20026;-84
2021/12/03 01:48:28;;;;;;;7.32;3.63;;;0.70;99.90;;;;;;5034262;28;20515;-84
2021/12/03 01:50:54;;;;;;;7.15;4.00;;;0.70;99.90;;;;;;5034388;28;20028;-84
2021/12/03 01:53:30;;;;;;;7.10;3.30;;;0.70;99.90;;;;;;5031748;28;20026;-84
2021/12/03 01:56:00;;;;;;;7.82;3.08;;;0.80;99.90;;;;;;5030638;28;20374;-84
2021/12/03 01:58:26;;;;;;;6.35;2.42;;;0.80;99.90;;;;;;5035502;28;20034;-84
2021/12/03 02:00:56;;;;;;;5.60;2.70;;;0.90;99.90;;;;;;5033896;28;20036;-84
2021/12/03 02:03:24;;;;;;;5.20;2.47;;;1.00;99.90;;;;;;5035327;28;20029;-83
2021/12/03 02:05:50;;;;;;;4.82;2.58;;;1.00;99.90;;;;;;5034044;28;20036;-83
2021/12/03 02:08:16;;;;;;;8.18;2.60;;;1.00;99.90;;;;;;5031441;28;20108;-83
2021/12/03 02:10:42;;;;;;;4.25;2.20;;;1.10;99.90;;;;;;5033657;28;20025;-83
2021/12/03 02:13:10;;;;;;;4.22;2.30;;;1.10;99.90;;;;;;5035488;28;20080;-84
2021/12/03 02:15:37;;;;;;;6.38;2.65;;;1.00;99.90;;;;;;5034192;28;20029;-83
2021/12/03 02:18:04;;;;;;;7.47;2.72;;;1.00;99.90;;;;;;5033757;28;20552;-84
2021/12/03 02:20:32;;;;;;;7.35;2.65;;;1.00;99.90;;;;;;5033047;28;20013;-83
2021/12/03 02:22:58;;;;;;;4.97;3.10;;;0.90;99.90;;;;;;5030364;28;20034;-84
2021/12/03 02:25:26;;;;;;;6.20;2.80;;;0.90;99.90;;;;;;5035920;28;20025;-83
2021/12/03 02:27:54;;;;;;;4.50;2.90;;;1.00;99.90;;;;;;5033851;28;20494;-83
2021/12/03 02:30:21;;;;;;;6.20;3.13;;;1.00;99.90;;;;;;5033704;28;20096;-83
2021/12/03 02:32:49;;;;;;;5.90;2.58;;;1.00;99.90;;;;;;5033706;28;20063;-84
2021/12/03 02:35:15;;;;;;;6.03;3.17;;;1.00;99.90;;;;;;5030002;28;20060;-84
2021/12/03 02:37:41;;;;;;;6.15;3.20;;;0.90;99.90;;;;;;5033204;28;20051;-84
2021/12/03 02:40:08;;;;;;;4.72;3.05;;;0.90;99.90;;;;;;5034876;28;20416;-86
2021/12/03 02:42:33;;;;;;;7.78;3.10;;;0.90;99.90;;;;;;5035034;28;20044;-85
2021/12/03 02:44:59;;;;;;;7.70;3.03;;;0.90;99.90;;;;;;5037152;28;20021;-86
2021/12/03 02:47:25;;;;;;;5.95;2.92;;;0.80;99.90;;;;;;5035599;28;20094;-85
2021/12/03 02:49:50;;;;;;;6.38;3.50;;;0.90;99.90;;;;;;5033961;28;20504;-86
2021/12/03 02:52:16;;;;;;;6.50;3.47;;;0.90;99.90;;;;;;5038154;28;20037;-85
2021/12/03 02:54:42;;;;;;;6.30;3.30;;;0.80;99.90;;;;;;5037340;28;20038;-86
2021/12/03 02:57:08;;;;;;;5.72;2.78;;;0.90;99.90;;;;;;5036097;28;20065;-85
2021/12/03 02:59:34;;;;;;;7.03;3.17;;;0.80;99.90;;;;;;5036773;28;20033;-86
2021/12/03 03:02:01;;;;;;;5.30;2.75;;;0.90;99.90;;;;;;5033534;28;20017;-85
2021/12/03 03:04:27;;;;;;;8.27;2.60;;;0.90;99.90;;;;;;5038752;28;20032;-86
2021/12/03 03:06:52;;;;;;;6.03;2.75;;;0.80;99.90;;;;;;5037039;28;20033;-85
2021/12/03 03:09:18;;;;;;;5.15;2.30;;;0.90;99.90;;;;;;5036904;28;20042;-85
2021/12/03 03:11:44;;;;;;;7.50;2.90;;;0.90;99.90;;;;;;5037073;28;20025;-86
2021/12/03 03:14:09;;;;;;;8.68;2.72;;;0.80;99.90;;;;;;5031865;28;20038;-85
2021/12/03 03:16:35;;;;;;;7.05;3.13;;;0.80;99.90;;;;;;5037946;28;20417;-85
2021/12/03 03:19:16;;;;;;;9.98;3.60;;;0.80;99.90;;;;;;5037011;28;20374;-85
2021/12/03 03:21:43;;;;;;;6.82;3.20;;;0.70;99.90;;;;;;5037245;28;20138;-87
2021/12/03 03:24:09;;;;;;;10.13;2.78;;;0.70;99.90;;;;;;5036903;28;20033;-86
2021/12/03 03:26:37;;;;;;;8.85;3.10;;;0.70;99.90;;;;;;5036296;28;20499;-85
2021/12/03 03:29:05;;;;;;;5.82;2.90;;;0.70;99.90;;;;;;5016831;28;20057;-86
2021/12/03 03:31:35;;;;;;;8.77;3.13;;;0.70;99.90;;;;;;5045696;28;20108;-86
2021/12/03 03:34:02;;;;;;;5.80;2.70;;;0.70;99.90;;;;;;5036524;28;20037;-85
2021/12/03 03:36:31;;;;;;;7.88;2.92;;;0.70;99.90;;;;;;5036537;28;20029;-86
2021/12/03 03:38:56;;;;;;;6.18;3.08;;;0.70;99.90;;;;;;5035564;28;20036;-86
2021/12/03 03:41:22;;;;;;;7.45;2.83;;;0.80;99.90;;;;;;5033089;28;20083;-85
2021/12/03 03:43:48;;;;;;;5.32;3.17;;;0.90;99.90;;;;;;5034225;28;20033;-85
2021/12/03 03:46:13;;;;;;;4.43;3.10;;;0.90;99.90;;;;;;5038529;28;20022;-85
2021/12/03 03:48:39;;;;;;;5.70;3.20;;;0.90;99.90;;;;;;5035960;28;20034;-86
2021/12/03 03:51:05;;;;;;;9.32;3.17;;;0.90;99.90;;;;;;5035859;28;20418;-86
2021/12/03 03:53:30;;;;;;;5.75;3.80;;;0.90;99.90;;;;;;5033594;28;20059;-86
2021/12/03 03:55:56;;;;;;;11.18;4.03;;;0.80;99.90;;;;;;5032868;28;20080;-85
2021/12/03 03:58:22;;;;;;;7.28;3.75;;;0.90;99.90;;;;;;5038130;28;20120;-86
2021/12/03 04:00:47;;;;;;;6.85;4.15;;;0.90;99.90;;;;;;5036146;28;20072;-85
2021/12/03 04:03:13;;;;;;;8.07;4.40;;;0.80;99.90;;;;;;5035933;28;20095;-86
2021/12/03 04:05:39;;;;;;;5.20;4.45;;;0.90;99.90;;;;;;5036470;28;20070;-86
2021/12/03 04:08:06;;;;;;;8.02;4.50;;;0.90;99.90;;;;;;5032820;28;20398;-86
2021/12/03 04:10:32;;;;;;;5.63;4.10;;;0.80;99.90;;;;;;5045693;28;20378;-86
2021/12/03 04:12:58;;;;;;;8.75;4.45;;;0.90;99.90;;;;;;5035826;28;20504;-86
2021/12/03 04:15:24;;;;;;;6.85;4.30;;;0.90;99.90;;;;;;5035820;28;20030;-86
2021/12/03 04:17:50;;;;;;;9.57;4.63;;;0.90;99.90;;;;;;5035527;28;20020;-86
2021/12/03 04:20:18;;;;;;;6.90;4.30;;;0.80;99.90;;;;;;5033070;28;20014;-86
2021/12/03 04:22:43;;;;;;;7.25;4.60;;;0.80;99.90;;;;;;5035118;28;20037;-86
2021/12/03 04:25:14;;;;;;;11.68;4.70;;;0.80;99.90;;;;;;5037180;28;20025;-86
2021/12/03 04:27:40;;;;;;;8.05;4.72;;;0.80;99.90;;;;;;5035246;28;20132;-86
2021/12/03 04:30:09;;;;;;;9.73;4.68;;;0.80;99.90;;;;;;5035521;28;20041;-86
2021/12/03 04:32:35;;;;;;;8.32;4.60;;;0.70;99.90;;;;;;5033440;28;20033;-86
2021/12/03 04:35:01;;;;;;;8.52;4.70;;;0.70;99.90;;;;;;5031155;28;20055;-86
2021/12/03 04:37:26;;;;;;;9.48;4.70;;;0.70;99.90;;;;;;5037769;28;20033;-86
2021/12/03 04:39:52;;;;;;;8.20;4.70;;;0.60;99.90;;;;;;5035298;28;20452;-86
2021/12/03 04:42:18;;;;;;;6.32;4.38;;;0.70;99.90;;;;;;5035115;28;20040;-86
2021/12/03 04:44:44;;;;;;;7.38;4.15;;;0.70;99.90;;;;;;5035607;28;20029;-86
2021/12/03 04:47:09;;;;;;;6.75;4.70;;;0.60;99.90;;;;;;5031213;28;20036;-86
2021/12/03 04:49:35;;;;;;;9.85;4.80;;;0.60;99.90;;;;;;5036159;28;20033;-86
2021/12/03 04:52:01;;;;;;;7.32;4.95;;;0.60;99.90;;;;;;5035425;28;20413;-85
2021/12/03 04:54:27;;;;;;;8.65;4.72;;;0.60;99.90;;;;;;5035019;28;20457;-86
2021/12/03 04:56:56;;;;;;;6.45;4.55;;;0.50;99.90;;;;;;5034943;28;20075;-86
2021/12/03 04:59:23;;;;;;;10.18;5.57;;;0.50;99.90;;;;;;5032123;28;20515;-85
2021/12/03 05:01:53;;;;;;;9.02;5.07;;;0.40;99.90;;;;;;5032046;28;20413;-86
2021/12/03 05:04:19;;;;;;;9.65;5.15;;;0.40;99.90;;;;;;5037015;28;20037;-86
2021/12/03 05:09:29;;;;;;;10.00;5.30;;;0.40;99.90;;;;;;5034680;28;20037;-86
2021/12/03 05:11:55;;;;;;;10.40;7.03;;;0.40;99.90;;;;;;5033183;28;20025;-86
2021/12/03 05:14:21;;;;;;;9.70;5.57;;;0.40;99.90;;;;;;5032812;28;20033;-86
2021/12/03 05:16:48;;;;;;;10.05;5.07;;;0.30;99.90;;;;;;5032741;28;20022;-86
2021/12/03 05:19:17;;;;;;;10.82;5.72;;;0.40;99.90;;;;;;5034565;28;20048;-86
2021/12/03 05:21:44;;;;;;;8.75;5.63;;;0.30;99.90;;;;;;5034666;28;20033;-86
2021/12/03 05:24:11;;;;;;;12.15;6.10;;;0.30;99.90;;;;;;5034827;28;20108;-86
2021/12/03 05:26:38;;;;;;;11.07;5.50;;;0.30;99.90;;;;;;5034120;28;20159;-86
2021/12/03 05:29:05;;;;;;;9.18;5.93;;;0.20;99.90;;;;;;5030628;28;20475;-86
2021/12/03 05:31:31;;;;;;;9.90;6.07;;;0.30;99.90;;;;;;5043568;28;20526;-86
2021/12/03 05:33:58;;;;;;;9.73;6.30;;;0.30;99.90;;;;;;5034636;28;20029;-86
2021/12/03 05:36:24;;;;;;;11.50;6.50;;;0.30;99.90;;;;;;5034525;28;20038;-86
2021/12/03 05:38:49;;;;;;;11.00;6.45;;;0.20;99.90;;;;;;5034283;28;20107;-86
2021/12/03 05:41:15;;;;;;;10.57;6.25;;;0.20;99.90;;;;;;5031558;28;20036;-86
2021/12/03 05:43:41;;;;;;;11.60;6.47;;;0.20;99.90;;;;;;5034436;28;20045;-87
2021/12/03 05:46:07;;;;;;;12.15;6.43;;;0.10;99.90;;;;;;5034979;28;20109;-85
2021/12/03 05:48:32;;;;;;;12.13;7.55;;;0.20;99.90;;;;;;5034340;28;20512;-86
2021/12/03 05:50:58;;;;;;;14.63;6.65;;;0.10;99.90;;;;;;5033158;28;20092;-86
2021/12/03 05:53:24;;;;;;;10.65;6.93;;;0.20;99.90;;;;;;5031980;28;20029;-86
2021/12/03 05:55:49;;;;;;;11.57;7.10;;;0.20;99.90;;;;;;5031815;28;20021;-86
2021/12/03 05:58:17;;;;;;;11.60;7.60;;;0.10;99.90;;;;;;5036028;28;20100;-86
2021/12/03 06:00:44;;;;;;;40.03;24.27;;;0.10;99.90;;;;;;5034028;28;20067;-86
2021/12/03 06:03:11;;;;;;;17.90;10.20;;;0.50;99.90;;;;;;5034183;28;20481;-86
2021/12/03 06:05:39;;;;;;;10.45;7.28;;;0.00;99.90;;;;;;5034207;28;20018;-87
2021/12/03 06:08:05;;;;;;;24.92;15.93;;;0.00;99.90;;;;;;5014292;28;20034;-86
2021/12/03 06:10:30;;;;;;;14.43;7.95;;;-0.10;99.90;;;;;;5035111;28;20048;-86
2021/12/03 06:12:56;;;;;;;12.77;7.45;;;0.00;99.90;;;;;;5033686;28;20108;-86
2021/12/03 06:15:23;;;;;;;13.52;7.88;;;0.00;99.90;;;;;;5034038;28;20519;-86
2021/12/03 06:17:49;;;;;;;13.95;9.35;;;0.00;99.90;;;;;;5035891;28;20020;-86
2021/12/03 06:20:16;;;;;;;13.95;9.23;;;0.00;99.90;;;;;;5035879;28;20060;-86
2021/12/03 06:22:42;;;;;;;13.50;8.60;;;0.00;99.90;;;;;;5037213;28;20047;-86
2021/12/03 06:25:10;;;;;;;11.43;8.30;;;0.10;99.90;;;;;;5038867;28;20513;-85
2021/12/03 06:27:36;;;;;;;12.43;8.18;;;0.10;99.90;;;;;;5037679;28;20045;-86
2021/12/03 06:30:06;;;;;;;12.52;7.70;;;0.10;99.90;;;;;;5036327;28;20041;-86
2021/12/03 06:32:33;;;;;;;15.85;11.52;;;0.00;99.90;;;;;;5037388;28;20366;-86
2021/12/03 06:34:58;;;;;;;19.80;11.40;;;0.00;99.90;;;;;;5033408;28;20037;-86
2021/12/03 06:37:24;;;;;;;16.70;9.88;;;0.10;99.90;;;;;;5039753;28;20427;-86
2021/12/03 06:39:50;;;;;;;18.58;11.00;;;0.10;99.90;;;;;;5036851;28;20033;-86
2021/12/03 06:42:15;;;;;;;21.15;13.15;;;0.10;99.90;;;;;;5037568;28;20416;-86
2021/12/03 06:44:41;;;;;;;17.27;11.55;;;0.10;99.90;;;;;;5037219;28;20031;-86
2021/12/03 06:47:06;;;;;;;22.00;13.60;;;0.10;99.90;;;;;;5033519;28;20069;-86
2021/12/03 06:49:33;;;;;;;19.25;12.15;;;0.10;99.90;;;;;;5039431;28;20427;-86
2021/12/03 06:52:06;;;;;;;19.83;11.60;;;0.10;99.90;;;;;;5035895;28;20025;-86
2021/12/03 06:54:33;;;;;;;17.40;11.07;;;0.00;99.90;;;;;;5037217;28;20029;-86
2021/12/03 06:57:03;;;;;;;10.98;8.30;;;0.10;99.90;;;;;;5037046;28;20116;-86
2021/12/03 06:59:29;;;;;;;26.52;15.88;;;0.10;99.90;;;;;;5036276;28;20017;-86
2021/12/03 07:01:55;;;;;;;20.90;13.40;;;0.10;99.90;;;;;;5033587;28;20060;-84
2021/12/03 07:04:22;;;;;;;17.60;9.52;;;0.00;99.90;;;;;;5039059;28;20021;-86
2021/12/03 07:06:48;;;;;;;15.48;8.60;;;0.00;99.90;;;;;;5037117;28;20018;-87
2021/12/03 07:09:14;;;;;;;15.18;9.65;;;0.10;99.90;;;;;;5036321;28;20048;-87
2021/12/03 07:11:41;;;;;;;18.73;8.50;;;0.10;99.90;;;;;;5037100;28;20032;-88
2021/12/03 07:14:07;;;;;;;13.90;9.32;;;0.20;99.90;;;;;;5032875;28;20034;-86
2021/12/03 07:16:33;;;;;;;15.45;9.82;;;0.20;99.90;;;;;;5038993;28;20536;-86
2021/12/03 07:18:58;;;;;;;17.30;10.98;;;0.20;99.90;;;;;;5035744;28;20025;-87
2021/12/03 07:21:25;;;;;;;14.85;9.68;;;0.30;99.90;;;;;;5035679;28;20095;-87
2021/12/03 07:23:51;;;;;;;15.80;10.38;;;0.30;99.90;;;;;;5037055;28;20104;-86
2021/12/03 07:26:19;;;;;;;15.93;10.32;;;0.40;99.90;;;;;;5033876;28;20517;-87
2021/12/03 07:28:45;;;;;;;15.90;10.80;;;0.40;99.90;;;;;;5034598;28;20528;-87
2021/12/03 07:31:11;;;;;;;18.67;10.75;;;0.50;99.90;;;;;;5038077;28;20029;-87
2021/12/03 07:33:37;;;;;;;17.65;10.43;;;1.00;99.90;;;;;;5036327;28;20037;-88
2021/12/03 07:36:05;;;;;;;17.17;11.15;;;1.70;99.90;;;;;;5036852;28;20033;-88
2021/12/03 07:38:31;;;;;;;17.05;11.82;;;2.00;99.90;;;;;;5035652;28;20075;-87
2021/12/03 07:40:57;;;;;;;17.38;11.20;;;2.90;99.90;;;;;;5032544;28;20022;-87
2021/12/03 07:43:22;;;;;;;16.00;10.13;;;4.20;99.90;;;;;;5038300;28;20026;-87
2021/12/03 07:45:49;;;;;;;17.42;11.38;;;5.30;99.90;;;;;;5036443;28;20033;-87
2021/12/03 07:48:15;;;;;;;14.02;10.40;;;6.00;98.70;;;;;;5035108;28;20029;-87
2021/12/03 07:50:41;;;;;;;12.85;9.52;;;6.30;95.10;;;;;;5034708;28;20042;-87
2021/12/03 07:53:13;;;;;;;13.75;9.57;;;7.40;90.80;;;;;;5031936;28;20533;-88
2021/12/03 07:55:38;;;;;;;11.82;8.00;;;9.30;73.10;;;;;;5036620;28;20143;-87
2021/12/03 07:58:05;;;;;;;9.88;7.13;;;10.30;49.10;;;;;;5048893;28;20061;-87
2021/12/03 08:00:31;;;;;;;11.82;7.65;;;10.90;37.80;;;;;;5040149;28;20026;-87
2021/12/03 08:02:56;;;;;;;12.75;7.72;;;10.10;38.30;;;;;;5036212;28;20489;-87
2021/12/03 08:05:22;;;;;;;10.75;6.82;;;11.30;33.90;;;;;;5034241;28;20524;-87
2021/12/03 08:07:49;;;;;;;14.40;6.70;;;12.10;25.40;;;;;;5034040;28;20026;-87
2021/12/03 08:10:15;;;;;;;9.30;6.35;;;12.40;22.10;;;;;;5035494;28;20044;-88
2021/12/03 08:12:43;;;;;;;8.15;5.78;;;11.90;20.40;;;;;;5035921;28;20100;-87
2021/12/03 08:15:09;;;;;;;8.10;5.63;;;11.00;26.50;;;;;;5035906;28;20055;-87
2021/12/03 08:17:35;;;;;;;10.98;7.00;;;10.20;27.80;;;;;;5035698;28;20556;-87
2021/12/03 08:20:00;;;;;;;10.30;7.72;;;12.00;30.40;;;;;;5031663;28;20022;-90
2021/12/03 08:22:26;;;;;;;8.13;6.20;;;13.70;12.10;;;;;;5041212;28;20128;-87
2021/12/03 08:24:52;;;;;;;8.02;5.28;;;14.90;6.10;;;;;;5035345;28;20527;-87
2021/12/03 08:27:18;;;;;;;9.05;6.30;;;15.60;1.10;;;;;;5034013;28;20045;-87
2021/12/03 08:29:43;;;;;;;8.10;5.70;;;15.60;1.00;;;;;;5035735;28;20036;-85
2021/12/03 08:32:10;;;;;;;8.77;5.75;;;15.90;1.00;;;;;;5031586;28;20480;-85
2021/12/03 08:34:36;;;;;;;11.05;6.22;;;17.00;1.00;;;;;;5036272;28;20040;-86
2021/12/03 08:37:02;;;;;;;12.63;6.38;;;17.80;1.00;;;;;;5036083;28;20405;-86
2021/12/03 08:39:30;;;;;;;7.53;5.97;;;17.80;1.00;;;;;;5035292;28;20120;-87
2021/12/03 08:41:55;;;;;;;8.32;5.90;;;17.10;1.00;;;;;;5035349;28;20021;-86
2021/12/03 08:44:21;;;;;;;9.07;6.13;;;17.90;1.00;;;;;;5033188;28;20112;-86
2021/12/03 08:46:51;;;;;;;8.85;6.20;;;18.00;1.00;;;;;;5034181;28;20501;-86
2021/12/03 08:49:31;;;;;;;7.40;6.00;;;18.30;1.00;;;;;;5035200;28;20037;-85
2021/12/03 08:55:09;;;;;;;11.85;8.00;;;19.60;1.00;;;;;;5035092;28;20066;-84
2021/12/03 08:57:18;;;;;;;9.75;7.22;;;19.70;1.00;;;;;;5039628;28;20042;-84
2021/12/03 08:59:44;;;;;;;9.25;7.00;;;20.20;1.00;;;;;;5035163;28;20021;-85
2021/12/03 09:02:10;;;;;;;8.90;6.95;;;19.30;1.00;;;;;;5030917;28;20528;-85
2021/12/03 09:04:36;;;;;;;10.50;5.85;;;18.50;1.00;;;;;;5036328;28;20018;-86
2021/12/03 09:07:03;;;;;;;7.78;6.32;;;18.30;1.00;;;;;;5033856;28;20036;-85
2021/12/03 09:09:30;;;;;;;7.47;5.90;;;18.30;1.00;;;;;;5034602;28;20132;-86
2021/12/03 09:11:57;;;;;;;10.45;6.40;;;18.10;1.00;;;;;;5034928;28;20036;-86
2021/12/03 09:14:59;;;;;;;8.15;6.28;;;18.30;1.00;;;;;;5033077;28;20036;-86
2021/12/03 09:22:49;;;;;;;8.77;6.47;;;12.70;5.10;;;;;;5044259;28;20111;-86
2021/12/03 09:25:21;;;;;;;7.07;6.05;;;12.00;7.70;;;;;;5034566;28;20113;-85
2021/12/03 09:27:47;;;;;;;9.27;6.75;;;10.40;17.20;;;;;;5034270;28;20103;-86
2021/12/03 09:30:14;;;;;;;8.80;6.82;;;15.40;1.00;;;;;;5034699;28;20038;-86
2021/12/03 09:32:43;;;;;;;8.57;5.70;;;16.00;1.00;;;;;;5034754;28;20424;-85
2021/12/03 09:35:09;;;;;;;9.15;6.53;;;13.70;1.10;;;;;;5030705;28;20057;-85
2021/12/03 09:37:35;;;;;;;8.13;6.30;;;12.70;7.50;;;;;;5035407;28;20026;-86
2021/12/03 09:40:06;;;;;;;8.45;5.72;;;16.00;1.00;;;;;;5034724;28;20026;-86
2021/12/03 09:42:35;;;;;;;10.10;6.15;;;16.80;1.00;;;;;;5034436;28;20030;-85
2021/12/03 09:45:02;;;;;;;7.50;6.00;;;19.30;1.00;;;;;;5033242;28;20075;-86
2021/12/03 09:47:27;;;;;;;7.05;5.32;;;20.30;1.00;;;;;;5032726;28;20025;-87
2021/12/03 09:49:56;;;;;;;7.82;5.60;;;20.70;1.00;;;;;;5029910;28;20038;-91
2021/12/03 09:55:11;;;;;;;7.13;6.28;;;22.50;1.00;;;;;;5034147;28;20037;-84
2021/12/03 09:57:42;;;;;;;9.75;6.45;;;16.70;1.00;;;;;;5035104;28;20119;-84
2021/12/03 10:02:57;;;;;;;8.80;6.90;;;13.60;1.00;;;;;;5034282;28;20021;-86
2021/12/03 10:18:43;;;;;;;8.13;6.18;;;22.30;1.00;;;;;;5034004;28;20426;-86
2021/12/03 10:25:15;;;;;;;7.57;6.32;;;19.80;1.00;;;;;;5032379;28;20124;-86
2021/12/03 10:49:29;;;;;;;9.95;6.57;;;23.50;1.00;;;;;;5033150;28;20033;-85
2021/12/03 10:54:27;;;;;;;9.38;6.28;;;23.00;1.00;;;;;;5033901;28;20524;-85
2021/12/03 12:01:22;;;;;;;6.93;4.50;;;17.80;1.00;;;;;;5036694;28;20555;-83
2021/12/03 12:18:12;;;;;;;4.75;3.97;;;16.70;1.00;;;;;;5026549;28;20402;-93
2021/12/03 12:34:57;;;;;;;5.70;4.05;;;15.80;1.00;;;;;;5014862;28;20081;-85
2021/12/03 13:36:12;;;;;;;9.70;4.70;;;17.80;1.00;;;;;;4855706;29;20048;-86
2021/12/03 14:54:35;;;;;;;5.50;3.00;;;13.50;7.90;;;;;;5036982;28;20033;-86
2021/12/03 14:57:33;;;;;;;4.43;2.80;;;13.50;7.30;;;;;;5024623;28;20025;-86
2021/12/03 15:08:04;;;;;;;7.57;3.30;;;11.80;13.70;;;;;;5032996;28;20049;-85
2021/12/03 15:11:13;;;;;;;4.93;3.00;;;11.80;13.30;;;;;;5038573;28;20029;-85
2021/12/03 15:13:29;;;;;;;6.13;3.05;;;11.60;13.90;;;;;;5038655;28;20575;-85
2021/12/03 15:18:56;;;;;;;5.70;3.20;;;11.60;15.60;;;;;;5037081;28;20052;-84
2021/12/03 15:26:37;;;;;;;8.68;3.30;;;9.90;20.70;;;;;;5032407;28;20033;-85
2021/12/03 15:34:38;;;;;;;5.00;2.90;;;9.50;23.10;;;;;;5038653;28;20017;-85
2021/12/03 15:54:09;;;;;;;4.40;2.80;;;8.30;30.80;;;;;;5011356;28;20049;-85
2021/12/03 16:04:20;;;;;;;12.60;6.78;;;7.70;37.30;;;;;;5014517;28;20522;-85
2021/12/03 16:07:02;;;;;;;11.68;7.95;;;7.10;37.10;;;;;;5014820;28;20033;-84
2021/12/03 16:14:46;;;;;;;9.50;5.25;;;6.70;38.00;;;;;;5013508;28;20022;-85
2021/12/03 16:17:36;;;;;;;10.18;5.45;;;6.60;39.50;;;;;;5031614;28;20018;-85
2021/12/03 16:43:58;;;;;;;11.35;8.00;;;6.10;42.20;;;;;;5045634;28;20056;-85
2021/12/03 16:51:38;;;;;;;9.20;6.43;;;6.40;42.10;;;;;;5034812;28;20120;-84
2021/12/03 16:54:12;;;;;;;11.70;7.55;;;6.00;42.40;;;;;;5033709;28;20425;-85
2021/12/03 16:56:53;;;;;;;14.30;8.18;;;6.00;43.40;;;;;;5034713;28;20135;-85
2021/12/03 16:59:19;;;;;;;11.73;7.70;;;5.90;44.70;;;;;;5018068;28;20056;-85
2021/12/03 17:04:45;;;;;;;10.98;7.55;;;5.60;45.60;;;;;;5036216;28;20034;-85
2021/12/03 17:12:23;;;;;;;17.38;10.73;;;5.30;45.40;;;;;;5034850;28;20087;-84
2021/12/03 17:49:36;;;;;;;10.25;8.30;;;5.10;47.50;;;;;;5034433;28;20600;-87
2021/12/03 17:59:55;;;;;;;13.75;8.32;;;5.10;47.50;;;;;;5034205;28;20032;-87
2021/12/03 18:02:35;;;;;;;12.60;9.25;;;5.30;47.20;;;;;;5031711;28;20026;-87
2021/12/03 18:10:32;;;;;;;16.13;9.68;;;5.10;46.80;;;;;;5033225;28;20038;-86
2021/12/03 18:13:16;;;;;;;11.75;8.88;;;5.00;47.40;;;;;;5033512;28;20037;-87
2021/12/03 18:19:08;;;;;;;13.35;8.35;;;5.60;47.80;;;;;;5037747;28;20091;-86
2021/12/03 18:56:06;;;;;;;14.57;11.00;;;5.70;42.50;;;;;;5012987;28;20032;-87
2021/12/03 18:58:32;;;;;;;14.63;10.68;;;5.80;41.90;;;;;;5017238;28;20030;-87
2021/12/03 19:00:59;;;;;;;18.95;11.68;;;5.70;41.40;;;;;;5016619;28;20042;-88
2021/12/03 19:03:32;;;;;;;16.48;10.95;;;5.60;43.30;;;;;;5016461;28;20037;-87
2021/12/03 19:06:06;;;;;;;17.63;11.85;;;5.90;44.50;;;;;;5016204;28;20040;-87
2021/12/03 19:08:51;;;;;;;15.80;10.48;;;6.00;45.00;;;;;;5015073;28;20029;-87
2021/12/03 19:11:38;;;;;;;13.65;9.70;;;5.50;44.60;;;;;;5012391;28;20033;-88
2021/12/03 19:14:07;;;;;;;13.23;8.40;;;5.60;44.70;;;;;;5028453;28;20081;-88
2021/12/03 19:16:33;;;;;;;10.32;7.43;;;5.60;52.70;;;;;;5016785;28;20487;-87
2021/12/03 19:19:00;;;;;;;8.95;7.18;;;5.60;42.70;;;;;;5039026;28;20055;-88
2021/12/03 19:21:28;;;;;;;8.88;7.10;;;5.80;42.60;;;;;;5042402;28;20091;-87
2021/12/03 19:23:59;;;;;;;9.82;6.88;;;5.90;43.50;;;;;;5036796;28;20439;-88
2021/12/03 19:26:27;;;;;;;9.10;7.22;;;5.60;44.40;;;;;;5033327;28;20022;-87
2021/12/03 19:28:54;;;;;;;10.30;7.28;;;6.10;43.70;;;;;;5035239;28;20022;-88
2021/12/03 19:31:22;;;;;;;9.18;7.13;;;6.10;42.40;;;;;;5037141;28;20026;-87
2021/12/03 19:33:48;;;;;;;9.52;6.68;;;5.80;41.70;;;;;;5036600;28;20052;-88
2021/12/03 19:36:21;;;;;;;10.00;6.55;;;5.70;41.60;;;;;;5036586;28;20458;-87
2021/12/03 19:38:50;;;;;;;9.80;6.80;;;6.00;41.30;;;;;;5036488;28;20025;-87
2021/12/03 19:41:29;;;;;;;8.77;6.68;;;6.00;43.00;;;;;;5033389;28;20426;-87
2021/12/03 19:43:56;;;;;;;7.45;6.13;;;6.20;42.00;;;;;;5033869;28;20045;-87
2021/12/03 19:46:31;;;;;;;9.57;7.38;;;5.60;41.00;;;;;;5053473;28;20547;-87
2021/12/03 19:49:08;;;;;;;10.68;8.80;;;6.30;41.90;;;;;;5036112;28;20040;-87
2021/12/03 19:51:40;;;;;;;14.20;10.00;;;5.90;41.90;;;;;;5036797;28;20041;-88
2021/12/03 19:54:06;;;;;;;10.32;8.05;;;6.10;42.80;;;;;;5036304;28;20026;-88
2021/12/03 19:56:33;;;;;;;13.38;8.52;;;5.70;41.20;;;;;;5034955;28;20029;-87
2021/12/03 19:58:59;;;;;;;10.77;7.75;;;5.70;42.80;;;;;;5032878;28;20112;-87
2021/12/03 20:01:30;;;;;;;10.38;7.00;;;5.70;42.50;;;;;;5037946;28;20363;-87
2021/12/03 20:03:56;;;;;;;10.82;6.80;;;6.30;41.80;;;;;;5036591;28;20044;-87
2021/12/03 20:06:22;;;;;;;8.60;6.40;;;6.10;40.40;;;;;;5036831;28;20014;-87
2021/12/03 20:08:52;;;;;;;11.18;6.40;;;6.10;40.90;;;;;;5033285;28;20028;-87
2021/12/03 20:11:18;;;;;;;10.40;6.35;;;5.50;41.00;;;;;;5032666;28;20037;-88
2021/12/03 20:13:48;;;;;;;8.02;5.53;;;5.50;40.70;;;;;;5036531;28;20028;-88
2021/12/03 20:18:45;;;;;;;7.88;5.28;;;5.60;39.30;;;;;;5035930;28;20109;-87
2021/12/03 20:21:12;;;;;;;6.88;4.60;;;5.50;39.70;;;;;;5035847;28;20500;-87
2021/12/03 20:24:01;;;;;;;7.55;4.95;;;6.00;38.40;;;;;;5035399;28;20029;-88
2021/12/03 20:26:52;;;;;;;6.45;4.05;;;6.10;39.00;;;;;;5020706;28;20037;-87
2021/12/03 20:29:17;;;;;;;5.20;3.85;;;6.30;39.00;;;;;;5016460;28;20058;-88
2021/12/03 20:31:47;;;;;;;5.43;3.92;;;5.70;37.60;;;;;;5035795;28;20037;-87
2021/12/03 20:37:12;;;;;;;7.53;4.25;;;5.90;39.80;;;;;;5035801;28;20480;-87
2021/12/03 20:39:40;;;;;;;6.13;4.47;;;5.70;40.40;;;;;;5035548;28;20035;-87